Iguape, Brazil
Current Conditions -  °F | °C
As of 11:00 AM on Friday 28 Nov 2014 (Local Time) from SBSP Reporting Station
Broken Clouds Broken Clouds  
Wind Chill: 72°   Ceiling: 2000
Heat Index: 72°   Visibility: 6mi
Dew Point: 61°   Wind: 12mph
Humidity: 69%   Direction: 140°SE
Pressure: 30.09"   Gusts: NA
Location:  24.72°S, 47.57°W
Report Text: SBSP 281300Z 14010KT 110V180 9999 BKN020 22/16 Q1019
Loading
Personal Weather Stations






























Interactive Weather Map New forecast layout! Learn more

10-Day Weather Forecast

Advertisements
Track Severe Weather on mobile